sensor_id;sensor_type;location;lat;lon;timestamp;pressure;altitude;pressure_sealevel;temperature;humidity
69247;BME280;56358;56.328;43.992;2024-02-16T00:00:55;103201.41;;;-16.08;57.39
69247;BME280;56358;56.328;43.992;2024-02-16T00:02:57;103196.94;;;-16.10;56.88
69247;BME280;56358;56.328;43.992;2024-02-16T00:04:59;103196.03;;;-16.11;57.42
69247;BME280;56358;56.328;43.992;2024-02-16T00:07:00;103075.63;;;-16.76;57.85
69247;BME280;56358;56.328;43.992;2024-02-16T00:09:00;103188.34;;;-16.11;57.39
69247;BME280;56358;56.328;43.992;2024-02-16T00:11:01;103176.94;;;-16.14;57.44
69247;BME280;56358;56.328;43.992;2024-02-16T00:13:02;103175.91;;;-16.16;57.59
69247;BME280;56358;56.328;43.992;2024-02-16T00:15:03;103181.72;;;-16.19;57.69
69247;BME280;56358;56.328;43.992;2024-02-16T00:17:03;103179.81;;;-16.22;57.30
69247;BME280;56358;56.328;43.992;2024-02-16T00:19:04;103201.38;;;-16.20;56.76
69247;BME280;56358;56.328;43.992;2024-02-16T00:21:05;103184.06;;;-16.10;56.87
69247;BME280;56358;56.328;43.992;2024-02-16T00:23:05;103201.84;;;-16.13;57.04
69247;BME280;56358;56.328;43.992;2024-02-16T00:25:07;103180.72;;;-16.21;57.17
69247;BME280;56358;56.328;43.992;2024-02-16T00:27:08;103188.22;;;-16.12;57.76
69247;BME280;56358;56.328;43.992;2024-02-16T00:29:08;103178.34;;;-16.18;57.30
69247;BME280;56358;56.328;43.992;2024-02-16T00:31:09;103206.00;;;-16.04;57.48
69247;BME280;56358;56.328;43.992;2024-02-16T00:33:09;103060.88;;;-16.78;57.13
69247;BME280;56358;56.328;43.992;2024-02-16T00:35:10;103196.50;;;-15.93;57.07
69247;BME280;56358;56.328;43.992;2024-02-16T00:37:11;103194.97;;;-15.91;57.32
69247;BME280;56358;56.328;43.992;2024-02-16T00:39:12;103163.19;;;-16.03;57.64
69247;BME280;56358;56.328;43.992;2024-02-16T00:41:20;103179.94;;;-15.96;56.71
69247;BME280;56358;56.328;43.992;2024-02-16T00:43:20;103165.75;;;-16.03;56.88
69247;BME280;56358;56.328;43.992;2024-02-16T00:45:21;103196.69;;;-15.78;57.18
69247;BME280;56358;56.328;43.992;2024-02-16T00:47:21;103195.16;;;-15.88;56.99
69247;BME280;56358;56.328;43.992;2024-02-16T00:49:24;103192.25;;;-15.80;57.03
69247;BME280;56358;56.328;43.992;2024-02-16T00:51:24;103198.97;;;-15.82;57.00
69247;BME280;56358;56.328;43.992;2024-02-16T00:53:26;103197.84;;;-15.86;57.28
69247;BME280;56358;56.328;43.992;2024-02-16T00:55:26;103191.81;;;-15.87;57.26
69247;BME280;56358;56.328;43.992;2024-02-16T00:57:27;103180.97;;;-15.94;57.14
69247;BME280;56358;56.328;43.992;2024-02-16T00:59:28;103203.75;;;-15.87;57.07
69247;BME280;56358;56.328;43.992;2024-02-16T01:01:30;103181.53;;;-15.87;57.00
69247;BME280;56358;56.328;43.992;2024-02-16T01:03:31;103172.25;;;-15.85;57.04
69247;BME280;56358;56.328;43.992;2024-02-16T01:05:31;103157.25;;;-16.02;57.72
69247;BME280;56358;56.328;43.992;2024-02-16T01:07:32;103058.03;;;-16.59;57.55
69247;BME280;56358;56.328;43.992;2024-02-16T01:09:33;103183.41;;;-15.72;57.57
69247;BME280;56358;56.328;43.992;2024-02-16T01:11:33;103167.66;;;-15.77;57.65
69247;BME280;56358;56.328;43.992;2024-02-16T01:13:34;103174.78;;;-15.61;57.62
69247;BME280;56358;56.328;43.992;2024-02-16T01:15:35;103136.41;;;-15.83;57.43
69247;BME280;56358;56.328;43.992;2024-02-16T01:17:37;103166.09;;;-15.63;58.02
69247;BME280;56358;56.328;43.992;2024-02-16T01:19:39;103146.19;;;-15.77;58.31
69247;BME280;56358;56.328;43.992;2024-02-16T01:21:40;103158.91;;;-15.67;58.87
69247;BME280;56358;56.328;43.992;2024-02-16T01:23:41;103061.41;;;-16.13;59.06
69247;BME280;56358;56.328;43.992;2024-02-16T01:25:42;103034.63;;;-16.28;59.31
69247;BME280;56358;56.328;43.992;2024-02-16T01:27:42;103141.81;;;-15.66;59.56
69247;BME280;56358;56.328;43.992;2024-02-16T01:29:43;103136.34;;;-15.71;60.48
69247;BME280;56358;56.328;43.992;2024-02-16T01:31:43;103133.66;;;-15.73;60.17
69247;BME280;56358;56.328;43.992;2024-02-16T01:33:44;103142.38;;;-15.71;60.66
69247;BME280;56358;56.328;43.992;2024-02-16T01:35:45;103124.72;;;-15.78;60.11
69247;BME280;56358;56.328;43.992;2024-02-16T01:37:46;103049.34;;;-16.38;60.56
69247;BME280;56358;56.328;43.992;2024-02-16T01:39:47;103121.72;;;-15.72;60.61
69247;BME280;56358;56.328;43.992;2024-02-16T01:41:48;103107.84;;;-15.74;60.49
69247;BME280;56358;56.328;43.992;2024-02-16T01:43:48;103102.28;;;-15.80;61.13
69247;BME280;56358;56.328;43.992;2024-02-16T01:45:49;103091.69;;;-15.85;60.83
69247;BME280;56358;56.328;43.992;2024-02-16T01:47:51;103143.81;;;-15.62;60.63
69247;BME280;56358;56.328;43.992;2024-02-16T01:49:51;103126.59;;;-15.52;60.69
69247;BME280;56358;56.328;43.992;2024-02-16T01:51:52;103108.50;;;-15.65;61.00
69247;BME280;56358;56.328;43.992;2024-02-16T01:53:54;103127.91;;;-15.45;61.22
69247;BME280;56358;56.328;43.992;2024-02-16T01:55:55;103133.94;;;-15.44;61.09
69247;BME280;56358;56.328;43.992;2024-02-16T01:57:58;103135.44;;;-15.48;61.16
69247;BME280;56358;56.328;43.992;2024-02-16T02:00:00;103112.28;;;-15.60;62.00
69247;BME280;56358;56.328;43.992;2024-02-16T02:02:00;103127.03;;;-15.45;62.16
69247;BME280;56358;56.328;43.992;2024-02-16T02:04:01;103078.97;;;-15.70;61.62
69247;BME280;56358;56.328;43.992;2024-02-16T02:06:02;103123.13;;;-15.52;61.61
69247;BME280;56358;56.328;43.992;2024-02-16T02:08:10;103118.22;;;-15.73;61.38
69247;BME280;56358;56.328;43.992;2024-02-16T02:10:11;103118.41;;;-15.58;62.04
69247;BME280;56358;56.328;43.992;2024-02-16T02:12:14;103117.09;;;-15.53;63.19
69247;BME280;56358;56.328;43.992;2024-02-16T02:14:15;103104.22;;;-15.53;62.65
69247;BME280;56358;56.328;43.992;2024-02-16T02:16:16;103100.56;;;-15.56;62.75
69247;BME280;56358;56.328;43.992;2024-02-16T02:18:19;103118.00;;;-15.52;63.43
69247;BME280;56358;56.328;43.992;2024-02-16T02:20:20;103099.84;;;-15.54;63.21
69247;BME280;56358;56.328;43.992;2024-02-16T02:22:21;103098.31;;;-15.63;63.99
69247;BME280;56358;56.328;43.992;2024-02-16T02:24:22;103106.00;;;-15.52;64.20
69247;BME280;56358;56.328;43.992;2024-02-16T02:26:22;103104.56;;;-15.48;64.56
69247;BME280;56358;56.328;43.992;2024-02-16T02:28:23;102985.25;;;-16.24;64.64
69247;BME280;56358;56.328;43.992;2024-02-16T02:30:25;103100.88;;;-15.63;64.78
69247;BME280;56358;56.328;43.992;2024-02-16T02:32:25;102984.69;;;-16.44;65.15
69247;BME280;56358;56.328;43.992;2024-02-16T02:34:26;103091.00;;;-15.82;65.31
69247;BME280;56358;56.328;43.992;2024-02-16T02:36:27;103083.56;;;-15.78;65.72
69247;BME280;56358;56.328;43.992;2024-02-16T02:38:27;103065.31;;;-15.94;65.81
69247;BME280;56358;56.328;43.992;2024-02-16T02:40:28;103092.75;;;-15.70;66.25
69247;BME280;56358;56.328;43.992;2024-02-16T02:42:28;103094.09;;;-15.75;66.12
69247;BME280;56358;56.328;43.992;2024-02-16T02:44:29;103091.63;;;-15.73;66.46
69247;BME280;56358;56.328;43.992;2024-02-16T02:46:31;103075.09;;;-15.77;66.27
69247;BME280;56358;56.328;43.992;2024-02-16T02:48:32;103105.94;;;-15.65;65.99
69247;BME280;56358;56.328;43.992;2024-02-16T02:50:32;102987.16;;;-16.33;65.90
69247;BME280;56358;56.328;43.992;2024-02-16T02:52:33;103107.72;;;-15.64;65.86
69247;BME280;56358;56.328;43.992;2024-02-16T02:54:34;103104.03;;;-15.68;66.05
69247;BME280;56358;56.328;43.992;2024-02-16T02:56:34;103098.41;;;-15.62;65.78
69247;BME280;56358;56.328;43.992;2024-02-16T02:58:35;103104.47;;;-15.61;66.32
69247;BME280;56358;56.328;43.992;2024-02-16T03:00:36;103101.09;;;-15.60;66.79
69247;BME280;56358;56.328;43.992;2024-02-16T03:02:38;103081.00;;;-15.66;66.36
69247;BME280;56358;56.328;43.992;2024-02-16T03:04:41;103048.19;;;-15.82;66.50
69247;BME280;56358;56.328;43.992;2024-02-16T03:06:42;103106.69;;;-15.54;66.45
69247;BME280;56358;56.328;43.992;2024-02-16T03:08:42;103090.28;;;-15.56;66.70
69247;BME280;56358;56.328;43.992;2024-02-16T03:10:43;103057.44;;;-15.72;66.75
69247;BME280;56358;56.328;43.992;2024-02-16T03:12:44;103091.59;;;-15.49;67.11
69247;BME280;56358;56.328;43.992;2024-02-16T03:14:45;103081.63;;;-15.45;67.00
69247;BME280;56358;56.328;43.992;2024-02-16T03:16:45;103096.75;;;-15.49;67.39
69247;BME280;56358;56.328;43.992;2024-02-16T03:18:46;103073.22;;;-15.42;67.04
69247;BME280;56358;56.328;43.992;2024-02-16T03:20:46;103080.38;;;-15.38;67.26
69247;BME280;56358;56.328;43.992;2024-02-16T03:22:49;103075.53;;;-15.34;66.75
69247;BME280;56358;56.328;43.992;2024-02-16T03:24:49;103079.22;;;-15.30;66.87
69247;BME280;56358;56.328;43.992;2024-02-16T03:26:50;103009.91;;;-15.65;67.32
69247;BME280;56358;56.328;43.992;2024-02-16T03:28:50;103035.00;;;-15.49;67.35
69247;BME280;56358;56.328;43.992;2024-02-16T03:30:51;103069.97;;;-15.40;66.80
69247;BME280;56358;56.328;43.992;2024-02-16T03:32:51;103082.81;;;-15.28;66.75
69247;BME280;56358;56.328;43.992;2024-02-16T03:34:52;103078.63;;;-15.26;66.77
69247;BME280;56358;56.328;43.992;2024-02-16T03:36:53;103082.22;;;-15.24;67.08
69247;BME280;56358;56.328;43.992;2024-02-16T03:38:54;103042.25;;;-15.44;67.02
69247;BME280;56358;56.328;43.992;2024-02-16T03:40:55;103074.13;;;-15.17;66.89
69247;BME280;56358;56.328;43.992;2024-02-16T03:42:56;103077.63;;;-15.16;66.87
69247;BME280;56358;56.328;43.992;2024-02-16T03:44:57;103089.91;;;-15.12;66.71
69247;BME280;56358;56.328;43.992;2024-02-16T03:46:58;103079.38;;;-15.15;66.84
69247;BME280;56358;56.328;43.992;2024-02-16T03:48:59;103073.59;;;-15.24;66.47
69247;BME280;56358;56.328;43.992;2024-02-16T03:50:59;103095.63;;;-15.16;66.99
69247;BME280;56358;56.328;43.992;2024-02-16T03:53:00;103085.84;;;-15.08;67.18
69247;BME280;56358;56.328;43.992;2024-02-16T03:55:01;103080.50;;;-15.11;66.86
69247;BME280;56358;56.328;43.992;2024-02-16T03:57:01;102954.56;;;-15.86;66.83
69247;BME280;56358;56.328;43.992;2024-02-16T03:59:04;103074.22;;;-15.15;67.38
69247;BME280;56358;56.328;43.992;2024-02-16T04:01:05;103090.06;;;-15.22;67.21
69247;BME280;56358;56.328;43.992;2024-02-16T04:03:07;103042.78;;;-15.36;67.24
69247;BME280;56358;56.328;43.992;2024-02-16T04:05:08;103062.56;;;-15.35;67.50
69247;BME280;56358;56.328;43.992;2024-02-16T04:07:08;103090.63;;;-15.26;67.31
69247;BME280;56358;56.328;43.992;2024-02-16T04:09:09;103078.09;;;-15.34;67.48
69247;BME280;56358;56.328;43.992;2024-02-16T04:11:13;103081.50;;;-15.35;68.07
69247;BME280;56358;56.328;43.992;2024-02-16T04:13:15;103066.28;;;-15.43;68.36
69247;BME280;56358;56.328;43.992;2024-02-16T04:15:16;103084.47;;;-15.28;68.08
69247;BME280;56358;56.328;43.992;2024-02-16T04:17:16;102985.59;;;-15.82;67.90
69247;BME280;56358;56.328;43.992;2024-02-16T04:19:17;103073.66;;;-15.36;68.16
69247;BME280;56358;56.328;43.992;2024-02-16T04:21:18;103076.84;;;-15.27;68.19
69247;BME280;56358;56.328;43.992;2024-02-16T04:23:18;103078.75;;;-15.24;68.38
69247;BME280;56358;56.328;43.992;2024-02-16T04:25:19;103074.81;;;-15.19;68.78
69247;BME280;56358;56.328;43.992;2024-02-16T04:27:20;103039.31;;;-15.37;68.61
69247;BME280;56358;56.328;43.992;2024-02-16T04:29:20;103067.09;;;-15.19;68.53
69247;BME280;56358;56.328;43.992;2024-02-16T04:31:21;103060.16;;;-15.20;68.27
69247;BME280;56358;56.328;43.992;2024-02-16T04:33:22;102995.66;;;-15.60;68.42
69247;BME280;56358;56.328;43.992;2024-02-16T04:35:22;102992.53;;;-15.56;68.44
69247;BME280;56358;56.328;43.992;2024-02-16T04:37:23;103084.38;;;-15.05;68.62
69247;BME280;56358;56.328;43.992;2024-02-16T04:39:24;103074.88;;;-15.06;68.95
69247;BME280;56358;56.328;43.992;2024-02-16T04:41:24;102968.19;;;-15.61;68.79
69247;BME280;56358;56.328;43.992;2024-02-16T04:43:25;103079.00;;;-14.96;69.16
69247;BME280;56358;56.328;43.992;2024-02-16T04:45:26;103054.28;;;-15.06;68.92
69247;BME280;56358;56.328;43.992;2024-02-16T04:47:27;103071.72;;;-15.02;68.58
69247;BME280;56358;56.328;43.992;2024-02-16T04:49:28;103072.94;;;-14.96;68.83
69247;BME280;56358;56.328;43.992;2024-02-16T04:51:28;103050.72;;;-15.08;68.86
69247;BME280;56358;56.328;43.992;2024-02-16T04:53:29;103079.09;;;-14.94;68.84
69247;BME280;56358;56.328;43.992;2024-02-16T04:55:30;103070.78;;;-14.90;68.75
69247;BME280;56358;56.328;43.992;2024-02-16T04:57:35;103051.22;;;-15.00;69.10
69247;BME280;56358;56.328;43.992;2024-02-16T04:59:36;103054.19;;;-15.07;69.28
69247;BME280;56358;56.328;43.992;2024-02-16T05:01:36;103080.50;;;-14.86;69.18
69247;BME280;56358;56.328;43.992;2024-02-16T05:03:37;103075.38;;;-14.73;69.06
69247;BME280;56358;56.328;43.992;2024-02-16T05:05:40;103068.34;;;-14.75;69.04
69247;BME280;56358;56.328;43.992;2024-02-16T05:07:48;103084.22;;;-14.69;69.08
69247;BME280;56358;56.328;43.992;2024-02-16T05:09:50;103077.28;;;-14.70;68.51
69247;BME280;56358;56.328;43.992;2024-02-16T05:11:50;103074.69;;;-14.70;68.44
69247;BME280;56358;56.328;43.992;2024-02-16T05:13:51;103105.72;;;-14.69;68.87
69247;BME280;56358;56.328;43.992;2024-02-16T05:15:52;103080.94;;;-14.67;68.74
69247;BME280;56358;56.328;43.992;2024-02-16T05:17:55;103043.16;;;-14.93;68.89
69247;BME280;56358;56.328;43.992;2024-02-16T05:19:55;103079.63;;;-14.60;68.60
69247;BME280;56358;56.328;43.992;2024-02-16T05:21:56;103090.16;;;-14.57;68.91
69247;BME280;56358;56.328;43.992;2024-02-16T05:23:56;103074.69;;;-14.70;68.52
69247;BME280;56358;56.328;43.992;2024-02-16T05:25:57;102897.41;;;-15.81;68.59
69247;BME280;56358;56.328;43.992;2024-02-16T05:27:57;103092.94;;;-14.67;68.54
69247;BME280;56358;56.328;43.992;2024-02-16T05:29:59;102989.88;;;-15.19;68.57
69247;BME280;56358;56.328;43.992;2024-02-16T05:32:00;103098.97;;;-14.53;68.73
69247;BME280;56358;56.328;43.992;2024-02-16T05:34:00;103093.03;;;-14.52;68.52
69247;BME280;56358;56.328;43.992;2024-02-16T05:36:01;103099.56;;;-14.44;68.37
69247;BME280;56358;56.328;43.992;2024-02-16T05:38:03;103090.47;;;-14.39;68.40
69247;BME280;56358;56.328;43.992;2024-02-16T05:40:08;103075.94;;;-14.38;68.78
69247;BME280;56358;56.328;43.992;2024-02-16T05:42:20;103068.06;;;-14.40;68.25
69247;BME280;56358;56.328;43.992;2024-02-16T05:44:22;103059.88;;;-14.34;68.73
69247;BME280;56358;56.328;43.992;2024-02-16T05:46:22;103092.28;;;-14.11;68.27
69247;BME280;56358;56.328;43.992;2024-02-16T05:48:23;103094.69;;;-14.14;68.16
69247;BME280;56358;56.328;43.992;2024-02-16T05:50:27;103072.75;;;-14.21;68.17
69247;BME280;56358;56.328;43.992;2024-02-16T05:52:27;103076.81;;;-14.11;67.68
69247;BME280;56358;56.328;43.992;2024-02-16T05:54:30;103089.72;;;-14.11;67.52
69247;BME280;56358;56.328;43.992;2024-02-16T05:56:31;103092.97;;;-14.13;67.93
69247;BME280;56358;56.328;43.992;2024-02-16T05:58:33;103089.53;;;-14.14;68.06
69247;BME280;56358;56.328;43.992;2024-02-16T06:00:34;103091.28;;;-14.13;67.99
69247;BME280;56358;56.328;43.992;2024-02-16T06:02:35;103088.84;;;-14.11;68.18
69247;BME280;56358;56.328;43.992;2024-02-16T06:04:35;102990.59;;;-14.70;68.35
69247;BME280;56358;56.328;43.992;2024-02-16T06:06:36;103046.06;;;-14.35;68.55
69247;BME280;56358;56.328;43.992;2024-02-16T06:08:36;103119.25;;;-14.19;68.70
69247;BME280;56358;56.328;43.992;2024-02-16T06:10:37;103088.91;;;-14.23;68.53
69247;BME280;56358;56.328;43.992;2024-02-16T06:12:38;103085.75;;;-14.06;68.45
69247;BME280;56358;56.328;43.992;2024-02-16T06:14:38;103059.06;;;-14.20;68.89
69247;BME280;56358;56.328;43.992;2024-02-16T06:16:39;103079.81;;;-13.91;68.86
69247;BME280;56358;56.328;43.992;2024-02-16T06:18:40;103081.78;;;-13.87;68.60
69247;BME280;56358;56.328;43.992;2024-02-16T06:20:42;102996.81;;;-14.39;68.36
69247;BME280;56358;56.328;43.992;2024-02-16T06:22:42;103094.59;;;-13.89;68.08
69247;BME280;56358;56.328;43.992;2024-02-16T06:24:44;103095.06;;;-13.81;67.92
69247;BME280;56358;56.328;43.992;2024-02-16T06:26:44;103090.59;;;-13.84;67.87
69247;BME280;56358;56.328;43.992;2024-02-16T06:28:45;103089.31;;;-13.90;67.96
69247;BME280;56358;56.328;43.992;2024-02-16T06:30:45;103085.16;;;-13.88;68.60
69247;BME280;56358;56.328;43.992;2024-02-16T06:32:46;103086.63;;;-13.92;68.14
69247;BME280;56358;56.328;43.992;2024-02-16T06:34:47;103086.84;;;-13.75;68.12
69247;BME280;56358;56.328;43.992;2024-02-16T06:36:48;103057.47;;;-13.91;68.24
69247;BME280;56358;56.328;43.992;2024-02-16T06:38:49;103085.31;;;-13.72;68.04
69247;BME280;56358;56.328;43.992;2024-02-16T06:40:49;103091.97;;;-13.62;68.30
69247;BME280;56358;56.328;43.992;2024-02-16T06:42:50;103096.13;;;-13.64;67.83
69247;BME280;56358;56.328;43.992;2024-02-16T06:44:50;103088.09;;;-13.55;68.00
69247;BME280;56358;56.328;43.992;2024-02-16T06:46:51;103064.66;;;-13.58;67.83
69247;BME280;56358;56.328;43.992;2024-02-16T06:48:52;103087.94;;;-13.43;67.91
69247;BME280;56358;56.328;43.992;2024-02-16T06:50:56;102988.84;;;-13.89;67.47
69247;BME280;56358;56.328;43.992;2024-02-16T06:52:57;103048.88;;;-13.50;66.72
69247;BME280;56358;56.328;43.992;2024-02-16T06:54:57;103092.72;;;-13.36;66.84
69247;BME280;56358;56.328;43.992;2024-02-16T06:56:58;103086.31;;;-13.28;66.89
69247;BME280;56358;56.328;43.992;2024-02-16T06:58:59;103086.22;;;-13.29;66.63
69247;BME280;56358;56.328;43.992;2024-02-16T07:00:59;103080.34;;;-13.27;66.53
69247;BME280;56358;56.328;43.992;2024-02-16T07:03:03;103071.47;;;-13.17;66.37
69247;BME280;56358;56.328;43.992;2024-02-16T07:05:04;102992.47;;;-13.72;66.36
69247;BME280;56358;56.328;43.992;2024-02-16T07:07:05;102954.28;;;-13.77;65.67
69247;BME280;56358;56.328;43.992;2024-02-16T07:09:06;103036.63;;;-13.39;65.39
69247;BME280;56358;56.328;43.992;2024-02-16T07:11:08;103073.13;;;-13.04;66.03
69247;BME280;56358;56.328;43.992;2024-02-16T07:13:11;103084.63;;;-12.99;66.51
69247;BME280;56358;56.328;43.992;2024-02-16T07:15:12;103079.63;;;-12.96;66.19
69247;BME280;56358;56.328;43.992;2024-02-16T07:17:12;103096.00;;;-12.95;66.45
69247;BME280;56358;56.328;43.992;2024-02-16T07:19:13;103069.53;;;-13.06;65.88
69247;BME280;56358;56.328;43.992;2024-02-16T07:21:14;103090.50;;;-13.02;66.26
69247;BME280;56358;56.328;43.992;2024-02-16T07:23:14;103086.91;;;-13.04;66.82
69247;BME280;56358;56.328;43.992;2024-02-16T07:25:15;103078.28;;;-13.04;66.29
69247;BME280;56358;56.328;43.992;2024-02-16T07:27:16;103030.44;;;-13.12;65.98
69247;BME280;56358;56.328;43.992;2024-02-16T07:29:17;103090.16;;;-12.78;66.18
69247;BME280;56358;56.328;43.992;2024-02-16T07:31:18;103091.63;;;-12.68;65.91
69247;BME280;56358;56.328;43.992;2024-02-16T07:33:19;103079.97;;;-12.61;65.61
69247;BME280;56358;56.328;43.992;2024-02-16T07:35:20;103093.13;;;-12.57;66.11
69247;BME280;56358;56.328;43.992;2024-02-16T07:37:21;103076.03;;;-12.55;65.72
69247;BME280;56358;56.328;43.992;2024-02-16T07:39:22;103096.19;;;-12.34;65.54
69247;BME280;56358;56.328;43.992;2024-02-16T07:41:24;103085.38;;;-12.27;64.50
69247;BME280;56358;56.328;43.992;2024-02-16T07:43:24;103078.16;;;-12.33;64.25
69247;BME280;56358;56.328;43.992;2024-02-16T07:45:25;103086.91;;;-12.16;64.33
69247;BME280;56358;56.328;43.992;2024-02-16T07:47:26;103054.97;;;-12.31;63.83
69247;BME280;56358;56.328;43.992;2024-02-16T07:49:27;103095.47;;;-12.17;63.55
69247;BME280;56358;56.328;43.992;2024-02-16T07:51:28;103099.03;;;-12.15;63.94
69247;BME280;56358;56.328;43.992;2024-02-16T07:53:29;103096.72;;;-12.10;63.06
69247;BME280;56358;56.328;43.992;2024-02-16T07:55:30;103060.06;;;-12.33;63.04
69247;BME280;56358;56.328;43.992;2024-02-16T07:57:31;103113.13;;;-11.94;63.58
69247;BME280;56358;56.328;43.992;2024-02-16T07:59:31;103077.53;;;-11.99;63.72
69247;BME280;56358;56.328;43.992;2024-02-16T08:01:32;103083.16;;;-11.89;63.71
69247;BME280;56358;56.328;43.992;2024-02-16T08:03:32;103093.25;;;-11.94;62.89
69247;BME280;56358;56.328;43.992;2024-02-16T08:05:34;103102.78;;;-11.94;63.17
69247;BME280;56358;56.328;43.992;2024-02-16T08:07:34;103096.34;;;-12.01;63.03
69247;BME280;56358;56.328;43.992;2024-02-16T08:09:35;103071.63;;;-12.11;63.53
69247;BME280;56358;56.328;43.992;2024-02-16T08:11:35;103083.41;;;-12.16;63.44
69247;BME280;56358;56.328;43.992;2024-02-16T08:13:36;103076.72;;;-12.13;63.70
69247;BME280;56358;56.328;43.992;2024-02-16T08:15:36;103079.94;;;-12.17;63.24
69247;BME280;56358;56.328;43.992;2024-02-16T08:17:37;103087.13;;;-11.96;63.35
69247;BME280;56358;56.328;43.992;2024-02-16T08:19:38;103084.72;;;-11.93;63.07
69247;BME280;56358;56.328;43.992;2024-02-16T08:21:39;103084.41;;;-12.14;63.44
69247;BME280;56358;56.328;43.992;2024-02-16T08:23:40;103058.91;;;-12.38;63.31
69247;BME280;56358;56.328;43.992;2024-02-16T08:25:40;103080.03;;;-12.15;64.26
69247;BME280;56358;56.328;43.992;2024-02-16T08:27:41;102981.22;;;-12.71;64.77
69247;BME280;56358;56.328;43.992;2024-02-16T08:29:42;103074.06;;;-12.14;65.44
69247;BME280;56358;56.328;43.992;2024-02-16T08:31:43;103068.00;;;-12.15;64.43
69247;BME280;56358;56.328;43.992;2024-02-16T08:33:45;103064.50;;;-12.15;64.38
69247;BME280;56358;56.328;43.992;2024-02-16T08:35:47;103067.63;;;-12.06;64.34
69247;BME280;56358;56.328;43.992;2024-02-16T08:37:47;103053.53;;;-12.11;64.02
69247;BME280;56358;56.328;43.992;2024-02-16T08:39:48;103040.53;;;-12.13;63.75
69247;BME280;56358;56.328;43.992;2024-02-16T08:41:49;103056.84;;;-12.14;63.83
69247;BME280;56358;56.328;43.992;2024-02-16T08:43:51;103044.91;;;-12.11;64.10
69247;BME280;56358;56.328;43.992;2024-02-16T08:45:51;103052.38;;;-12.16;63.63
69247;BME280;56358;56.328;43.992;2024-02-16T08:47:52;103055.31;;;-12.10;64.72
69247;BME280;56358;56.328;43.992;2024-02-16T08:49:52;103031.63;;;-12.33;64.24
69247;BME280;56358;56.328;43.992;2024-02-16T08:51:53;102951.25;;;-12.67;64.63
69247;BME280;56358;56.328;43.992;2024-02-16T08:53:53;103011.66;;;-12.35;64.33
69247;BME280;56358;56.328;43.992;2024-02-16T08:55:54;103052.13;;;-12.21;64.47
69247;BME280;56358;56.328;43.992;2024-02-16T08:57:55;103015.78;;;-12.39;64.74
69247;BME280;56358;56.328;43.992;2024-02-16T08:59:55;103037.69;;;-12.17;64.29
69247;BME280;56358;56.328;43.992;2024-02-16T09:01:56;102927.84;;;-12.70;64.49
69247;BME280;56358;56.328;43.992;2024-02-16T09:03:58;103035.94;;;-12.02;64.29
69247;BME280;56358;56.328;43.992;2024-02-16T09:05:59;103037.22;;;-12.10;64.57
69247;BME280;56358;56.328;43.992;2024-02-16T09:08:00;102953.94;;;-12.51;64.34
69247;BME280;56358;56.328;43.992;2024-02-16T09:10:00;102882.09;;;-12.88;64.41
69247;BME280;56358;56.328;43.992;2024-02-16T09:12:01;103033.13;;;-11.90;64.83
69247;BME280;56358;56.328;43.992;2024-02-16T09:14:01;103041.88;;;-11.88;64.13
69247;BME280;56358;56.328;43.992;2024-02-16T09:16:03;103010.13;;;-12.17;63.53
69247;BME280;56358;56.328;43.992;2024-02-16T09:18:04;103046.38;;;-12.00;63.47
69247;BME280;56358;56.328;43.992;2024-02-16T09:20:05;102971.81;;;-12.24;63.45
69247;BME280;56358;56.328;43.992;2024-02-16T09:22:08;103056.44;;;-11.73;63.95
69247;BME280;56358;56.328;43.992;2024-02-16T09:24:08;102971.59;;;-12.12;63.75
69247;BME280;56358;56.328;43.992;2024-02-16T09:26:10;103053.00;;;-11.57;64.10
69247;BME280;56358;56.328;43.992;2024-02-16T09:28:12;103043.16;;;-11.48;64.40
69247;BME280;56358;56.328;43.992;2024-02-16T09:30:12;103044.06;;;-11.31;64.40
69247;BME280;56358;56.328;43.992;2024-02-16T09:32:13;103030.69;;;-11.39;63.82
69247;BME280;56358;56.328;43.992;2024-02-16T09:34:14;103079.97;;;-11.37;63.48
69247;BME280;56358;56.328;43.992;2024-02-16T09:36:14;103063.41;;;-11.24;63.11
69247;BME280;56358;56.328;43.992;2024-02-16T09:38:15;103048.19;;;-11.18;63.36
69247;BME280;56358;56.328;43.992;2024-02-16T09:40:16;103049.22;;;-11.15;63.01
69247;BME280;56358;56.328;43.992;2024-02-16T09:42:18;103045.66;;;-11.33;63.25
69247;BME280;56358;56.328;43.992;2024-02-16T09:44:20;102949.38;;;-11.92;63.44
69247;BME280;56358;56.328;43.992;2024-02-16T09:46:21;103045.63;;;-11.66;64.12
69247;BME280;56358;56.328;43.992;2024-02-16T09:48:25;103038.38;;;-11.57;64.50
69247;BME280;56358;56.328;43.992;2024-02-16T09:50:27;103043.22;;;-11.47;64.27
69247;BME280;56358;56.328;43.992;2024-02-16T09:52:28;103027.13;;;-11.57;64.25
69247;BME280;56358;56.328;43.992;2024-02-16T09:54:32;103009.47;;;-11.65;63.83
69247;BME280;56358;56.328;43.992;2024-02-16T09:56:34;103024.00;;;-11.52;64.04
69247;BME280;56358;56.328;43.992;2024-02-16T09:58:35;103023.00;;;-11.37;64.19
69247;BME280;56358;56.328;43.992;2024-02-16T10:00:36;103002.66;;;-11.63;64.28
69247;BME280;56358;56.328;43.992;2024-02-16T10:02:46;103012.41;;;-11.58;64.10
69247;BME280;56358;56.328;43.992;2024-02-16T10:04:47;103017.44;;;-11.45;64.24
69247;BME280;56358;56.328;43.992;2024-02-16T10:06:48;103017.75;;;-11.39;64.27
69247;BME280;56358;56.328;43.992;2024-02-16T10:08:53;103012.06;;;-11.48;64.13
69247;BME280;56358;56.328;43.992;2024-02-16T10:11:04;103004.50;;;-11.45;63.50
69247;BME280;56358;56.328;43.992;2024-02-16T10:13:06;103011.69;;;-11.39;63.91
69247;BME280;56358;56.328;43.992;2024-02-16T10:15:07;102986.44;;;-11.43;64.21
69247;BME280;56358;56.328;43.992;2024-02-16T10:17:08;102994.59;;;-11.69;63.68